sensor_id;sensor_type;location;lat;lon;timestamp;P1;durP1;ratioP1;P2;durP2;ratioP2
54557;SDS011;40452;50.080;20.040;2023-01-26T04:13:40;9.15;;;6.65;;
54557;SDS011;40452;50.080;20.040;2023-01-26T04:16:24;11.65;;;7.13;;
54557;SDS011;40452;50.080;20.040;2023-01-26T04:19:08;9.93;;;6.60;;
54557;SDS011;40452;50.080;20.040;2023-01-26T04:21:52;9.18;;;6.40;;
54557;SDS011;40452;50.080;20.040;2023-01-26T04:24:17;9.82;;;6.72;;
54557;SDS011;40452;50.080;20.040;2023-01-26T04:26:46;13.07;;;6.30;;
54557;SDS011;40452;50.080;20.040;2023-01-26T04:29:14;10.55;;;6.78;;
54557;SDS011;40452;50.080;20.040;2023-01-26T04:31:41;10.15;;;6.80;;
54557;SDS011;40452;50.080;20.040;2023-01-26T04:34:10;16.75;;;7.07;;
54557;SDS011;40452;50.080;20.040;2023-01-26T04:36:37;9.38;;;6.38;;
54557;SDS011;40452;50.080;20.040;2023-01-26T04:39:03;12.15;;;7.45;;
54557;SDS011;40452;50.080;20.040;2023-01-26T04:41:29;11.13;;;7.20;;
54557;SDS011;40452;50.080;20.040;2023-01-26T04:43:56;11.32;;;8.00;;
54557;SDS011;40452;50.080;20.040;2023-01-26T04:46:22;12.25;;;8.05;;
54557;SDS011;40452;50.080;20.040;2023-01-26T04:48:48;11.65;;;8.60;;
54557;SDS011;40452;50.080;20.040;2023-01-26T04:51:15;13.07;;;8.57;;
54557;SDS011;40452;50.080;20.040;2023-01-26T04:53:44;14.13;;;8.93;;
54557;SDS011;40452;50.080;20.040;2023-01-26T04:56:14;13.52;;;9.27;;
54557;SDS011;40452;50.080;20.040;2023-01-26T04:58:49;13.52;;;9.10;;
54557;SDS011;40452;50.080;20.040;2023-01-26T05:01:16;16.75;;;10.35;;
54557;SDS011;40452;50.080;20.040;2023-01-26T05:03:41;14.77;;;10.02;;
54557;SDS011;40452;50.080;20.040;2023-01-26T05:06:07;14.13;;;10.05;;
54557;SDS011;40452;50.080;20.040;2023-01-26T05:08:33;13.95;;;9.82;;
54557;SDS011;40452;50.080;20.040;2023-01-26T05:10:58;16.13;;;10.70;;
54557;SDS011;40452;50.080;20.040;2023-01-26T05:13:24;15.57;;;10.25;;
54557;SDS011;40452;50.080;20.040;2023-01-26T05:15:49;16.85;;;11.07;;
54557;SDS011;40452;50.080;20.040;2023-01-26T05:18:15;15.70;;;10.60;;
54557;SDS011;40452;50.080;20.040;2023-01-26T05:20:40;16.58;;;10.68;;
54557;SDS011;40452;50.080;20.040;2023-01-26T05:23:09;15.52;;;10.43;;
54557;SDS011;40452;50.080;20.040;2023-01-26T05:25:35;15.20;;;10.23;;
54557;SDS011;40452;50.080;20.040;2023-01-26T05:28:00;15.18;;;10.57;;
54557;SDS011;40452;50.080;20.040;2023-01-26T05:30:26;15.20;;;9.90;;
54557;SDS011;40452;50.080;20.040;2023-01-26T05:32:52;15.25;;;10.25;;
54557;SDS011;40452;50.080;20.040;2023-01-26T05:35:17;14.40;;;9.80;;
54557;SDS011;40452;50.080;20.040;2023-01-26T05:37:43;14.88;;;10.40;;
54557;SDS011;40452;50.080;20.040;2023-01-26T15:51:35;12.45;;;7.80;;
54557;SDS011;40452;50.080;20.040;2023-01-26T15:54:01;13.02;;;8.13;;
54557;SDS011;40452;50.080;20.040;2023-01-26T15:56:26;11.18;;;7.47;;
54557;SDS011;40452;50.080;20.040;2023-01-26T15:58:52;12.93;;;8.43;;
54557;SDS011;40452;50.080;20.040;2023-01-26T16:01:19;12.80;;;8.55;;
54557;SDS011;40452;50.080;20.040;2023-01-26T16:03:46;14.38;;;8.27;;
54557;SDS011;40452;50.080;20.040;2023-01-26T16:06:23;15.20;;;8.48;;
54557;SDS011;40452;50.080;20.040;2023-01-26T16:08:51;12.27;;;8.27;;
54557;SDS011;40452;50.080;20.040;2023-01-26T16:11:17;11.60;;;7.63;;
54557;SDS011;40452;50.080;20.040;2023-01-26T16:13:44;11.88;;;7.55;;
54557;SDS011;40452;50.080;20.040;2023-01-26T16:16:10;13.30;;;8.63;;
54557;SDS011;40452;50.080;20.040;2023-01-26T16:18:38;10.88;;;7.47;;
54557;SDS011;40452;50.080;20.040;2023-01-26T16:21:15;12.60;;;7.75;;
54557;SDS011;40452;50.080;20.040;2023-01-26T16:23:46;11.02;;;7.60;;
54557;SDS011;40452;50.080;20.040;2023-01-26T16:26:13;11.05;;;7.07;;
54557;SDS011;40452;50.080;20.040;2023-01-26T16:28:40;10.77;;;7.45;;
54557;SDS011;40452;50.080;20.040;2023-01-26T16:31:16;10.57;;;7.28;;
54557;SDS011;40452;50.080;20.040;2023-01-26T16:36:13;11.38;;;7.70;;
54557;SDS011;40452;50.080;20.040;2023-01-26T16:38:40;11.07;;;7.50;;
54557;SDS011;40452;50.080;20.040;2023-01-26T16:41:11;12.07;;;8.25;;
54557;SDS011;40452;50.080;20.040;2023-01-26T16:43:44;10.02;;;7.25;;
54557;SDS011;40452;50.080;20.040;2023-01-26T16:46:09;13.18;;;8.02;;
54557;SDS011;40452;50.080;20.040;2023-01-26T16:48:36;13.10;;;7.75;;
54557;SDS011;40452;50.080;20.040;2023-01-26T16:51:13;11.30;;;7.47;;
54557;SDS011;40452;50.080;20.040;2023-01-26T16:53:44;12.77;;;7.97;;
54557;SDS011;40452;50.080;20.040;2023-01-26T16:56:11;11.65;;;7.13;;
54557;SDS011;40452;50.080;20.040;2023-01-26T16:58:38;12.13;;;7.85;;
54557;SDS011;40452;50.080;20.040;2023-01-26T17:01:04;10.40;;;7.43;;
54557;SDS011;40452;50.080;20.040;2023-01-26T17:03:30;11.77;;;8.02;;
54557;SDS011;40452;50.080;20.040;2023-01-26T17:05:56;11.73;;;7.30;;
54557;SDS011;40452;50.080;20.040;2023-01-26T17:08:22;12.40;;;8.25;;
54557;SDS011;40452;50.080;20.040;2023-01-26T17:10:48;10.43;;;7.40;;
54557;SDS011;40452;50.080;20.040;2023-01-26T17:13:14;11.93;;;7.35;;
54557;SDS011;40452;50.080;20.040;2023-01-26T17:15:40;13.55;;;7.72;;
54557;SDS011;40452;50.080;20.040;2023-01-26T17:18:09;11.80;;;6.70;;
54557;SDS011;40452;50.080;20.040;2023-01-26T17:20:35;11.25;;;7.60;;
54557;SDS011;40452;50.080;20.040;2023-01-26T17:23:02;11.43;;;6.95;;
54557;SDS011;40452;50.080;20.040;2023-01-26T17:25:28;10.43;;;7.03;;
54557;SDS011;40452;50.080;20.040;2023-01-26T17:27:54;10.70;;;7.40;;
54557;SDS011;40452;50.080;20.040;2023-01-26T17:30:19;12.30;;;7.30;;
54557;SDS011;40452;50.080;20.040;2023-01-26T17:32:45;11.57;;;6.95;;
54557;SDS011;40452;50.080;20.040;2023-01-26T17:35:11;10.65;;;7.50;;
54557;SDS011;40452;50.080;20.040;2023-01-26T17:37:40;12.07;;;7.38;;
54557;SDS011;40452;50.080;20.040;2023-01-26T17:40:06;11.60;;;7.40;;
54557;SDS011;40452;50.080;20.040;2023-01-26T17:42:32;10.93;;;7.40;;
54557;SDS011;40452;50.080;20.040;2023-01-26T17:44:59;12.65;;;7.30;;
54557;SDS011;40452;50.080;20.040;2023-01-26T17:47:25;13.10;;;7.93;;
54557;SDS011;40452;50.080;20.040;2023-01-26T17:49:51;12.05;;;7.30;;
54557;SDS011;40452;50.080;20.040;2023-01-26T17:52:17;13.32;;;7.78;;
54557;SDS011;40452;50.080;20.040;2023-01-26T17:54:43;11.45;;;7.80;;
54557;SDS011;40452;50.080;20.040;2023-01-26T17:57:08;12.23;;;7.60;;
54557;SDS011;40452;50.080;20.040;2023-01-26T17:59:34;13.35;;;7.72;;
54557;SDS011;40452;50.080;20.040;2023-01-26T18:02:00;12.82;;;7.57;;
54557;SDS011;40452;50.080;20.040;2023-01-26T18:04:26;11.55;;;7.55;;
54557;SDS011;40452;50.080;20.040;2023-01-26T18:06:51;13.18;;;7.10;;
54557;SDS011;40452;50.080;20.040;2023-01-26T18:09:19;14.73;;;7.88;;
54557;SDS011;40452;50.080;20.040;2023-01-26T18:11:45;13.50;;;7.43;;
54557;SDS011;40452;50.080;20.040;2023-01-26T18:14:12;13.95;;;7.38;;
54557;SDS011;40452;50.080;20.040;2023-01-26T18:16:37;11.13;;;7.20;;
54557;SDS011;40452;50.080;20.040;2023-01-26T18:19:03;15.50;;;7.68;;
54557;SDS011;40452;50.080;20.040;2023-01-26T18:21:29;12.70;;;8.00;;
54557;SDS011;40452;50.080;20.040;2023-01-26T18:23:56;13.43;;;8.05;;
54557;SDS011;40452;50.080;20.040;2023-01-26T18:26:26;14.07;;;8.25;;
54557;SDS011;40452;50.080;20.040;2023-01-26T18:28:53;14.23;;;8.25;;
54557;SDS011;40452;50.080;20.040;2023-01-26T18:31:28;12.95;;;8.50;;
54557;SDS011;40452;50.080;20.040;2023-01-26T18:33:56;13.63;;;8.40;;
54557;SDS011;40452;50.080;20.040;2023-01-26T18:36:23;16.60;;;8.88;;
54557;SDS011;40452;50.080;20.040;2023-01-26T18:38:50;11.27;;;8.45;;
54557;SDS011;40452;50.080;20.040;2023-01-26T18:41:18;14.27;;;8.98;;
54557;SDS011;40452;50.080;20.040;2023-01-26T18:43:48;13.57;;;8.90;;
54557;SDS011;40452;50.080;20.040;2023-01-26T18:46:15;14.80;;;8.77;;
54557;SDS011;40452;50.080;20.040;2023-01-26T18:48:40;14.63;;;9.40;;
54557;SDS011;40452;50.080;20.040;2023-01-26T18:51:06;13.80;;;9.40;;
54557;SDS011;40452;50.080;20.040;2023-01-26T18:53:32;14.55;;;9.18;;
54557;SDS011;40452;50.080;20.040;2023-01-26T18:56:06;15.32;;;9.68;;
54557;SDS011;40452;50.080;20.040;2023-01-26T18:58:33;15.02;;;9.95;;
54557;SDS011;40452;50.080;20.040;2023-01-26T19:01:00;15.30;;;9.77;;
54557;SDS011;40452;50.080;20.040;2023-01-26T19:03:29;15.43;;;10.32;;
54557;SDS011;40452;50.080;20.040;2023-01-26T19:05:58;18.58;;;10.80;;
54557;SDS011;40452;50.080;20.040;2023-01-26T19:08:25;16.35;;;10.70;;
54557;SDS011;40452;50.080;20.040;2023-01-26T19:10:51;15.55;;;9.40;;
54557;SDS011;40452;50.080;20.040;2023-01-26T19:13:17;19.85;;;10.55;;
54557;SDS011;40452;50.080;20.040;2023-01-26T19:15:45;20.73;;;11.20;;
54557;SDS011;40452;50.080;20.040;2023-01-26T19:18:12;15.02;;;10.23;;
54557;SDS011;40452;50.080;20.040;2023-01-26T19:20:39;17.42;;;10.43;;
54557;SDS011;40452;50.080;20.040;2023-01-26T19:23:05;14.27;;;9.25;;
54557;SDS011;40452;50.080;20.040;2023-01-26T19:25:33;13.75;;;9.48;;
54557;SDS011;40452;50.080;20.040;2023-01-26T19:28:01;21.60;;;9.33;;
54557;SDS011;40452;50.080;20.040;2023-01-26T19:30:27;15.48;;;9.18;;
54557;SDS011;40452;50.080;20.040;2023-01-26T19:32:53;15.10;;;8.93;;
54557;SDS011;40452;50.080;20.040;2023-01-26T19:35:37;18.33;;;9.32;;
54557;SDS011;40452;50.080;20.040;2023-01-26T19:38:04;15.27;;;9.63;;
54557;SDS011;40452;50.080;20.040;2023-01-26T19:40:32;17.23;;;8.85;;
54557;SDS011;40452;50.080;20.040;2023-01-26T19:42:58;14.18;;;8.70;;
54557;SDS011;40452;50.080;20.040;2023-01-26T19:45:24;12.98;;;8.30;;
54557;SDS011;40452;50.080;20.040;2023-01-26T19:47:50;16.20;;;8.68;;
54557;SDS011;40452;50.080;20.040;2023-01-26T19:50:16;13.23;;;9.00;;
54557;SDS011;40452;50.080;20.040;2023-01-26T19:52:42;13.60;;;8.50;;
54557;SDS011;40452;50.080;20.040;2023-01-26T19:55:07;16.05;;;8.75;;
54557;SDS011;40452;50.080;20.040;2023-01-26T19:57:33;13.18;;;8.77;;
54557;SDS011;40452;50.080;20.040;2023-01-26T20:00:00;14.15;;;8.38;;
54557;SDS011;40452;50.080;20.040;2023-01-26T20:02:26;12.00;;;8.13;;
54557;SDS011;40452;50.080;20.040;2023-01-26T20:04:51;17.65;;;8.48;;
54557;SDS011;40452;50.080;20.040;2023-01-26T20:07:17;14.95;;;8.27;;
54557;SDS011;40452;50.080;20.040;2023-01-26T20:09:42;12.43;;;7.95;;
54557;SDS011;40452;50.080;20.040;2023-01-26T20:12:08;11.77;;;8.00;;
54557;SDS011;40452;50.080;20.040;2023-01-26T20:14:35;13.15;;;7.80;;
